sensor_id;sensor_type;location;lat;lon;timestamp;P1;durP1;ratioP1;P2;durP2;ratioP2
15946;SDS011;8072;52.554;7.966;2023-03-23T00:01:26;16.97;;;11.77;;
15946;SDS011;8072;52.554;7.966;2023-03-23T00:03:55;19.43;;;12.90;;
15946;SDS011;8072;52.554;7.966;2023-03-23T00:06:25;17.73;;;12.33;;
15946;SDS011;8072;52.554;7.966;2023-03-23T00:08:53;16.40;;;12.17;;
15946;SDS011;8072;52.554;7.966;2023-03-23T00:11:24;16.67;;;12.00;;
15946;SDS011;8072;52.554;7.966;2023-03-23T00:13:54;17.03;;;11.67;;
15946;SDS011;8072;52.554;7.966;2023-03-23T00:16:23;19.97;;;13.07;;
15946;SDS011;8072;52.554;7.966;2023-03-23T00:19:03;18.63;;;12.00;;
15946;SDS011;8072;52.554;7.966;2023-03-23T00:21:37;15.33;;;11.73;;
15946;SDS011;8072;52.554;7.966;2023-03-23T00:26:38;15.83;;;12.17;;
15946;SDS011;8072;52.554;7.966;2023-03-23T00:29:05;18.90;;;12.23;;
15946;SDS011;8072;52.554;7.966;2023-03-23T00:31:39;15.17;;;11.87;;
15946;SDS011;8072;52.554;7.966;2023-03-23T00:34:05;20.07;;;12.60;;
15946;SDS011;8072;52.554;7.966;2023-03-23T00:36:33;19.33;;;12.33;;
15946;SDS011;8072;52.554;7.966;2023-03-23T00:39:01;18.47;;;12.23;;
15946;SDS011;8072;52.554;7.966;2023-03-23T00:41:30;20.03;;;12.57;;
15946;SDS011;8072;52.554;7.966;2023-03-23T00:43:58;17.07;;;12.70;;
15946;SDS011;8072;52.554;7.966;2023-03-23T00:46:27;16.33;;;12.03;;
15946;SDS011;8072;52.554;7.966;2023-03-23T00:48:55;19.87;;;12.50;;
15946;SDS011;8072;52.554;7.966;2023-03-23T00:51:22;16.33;;;12.37;;
15946;SDS011;8072;52.554;7.966;2023-03-23T00:53:49;16.33;;;12.93;;
15946;SDS011;8072;52.554;7.966;2023-03-23T00:56:15;18.27;;;11.57;;
15946;SDS011;8072;52.554;7.966;2023-03-23T00:58:41;15.80;;;11.67;;
15946;SDS011;8072;52.554;7.966;2023-03-23T01:01:08;15.90;;;11.83;;
15946;SDS011;8072;52.554;7.966;2023-03-23T01:03:34;14.10;;;10.73;;
15946;SDS011;8072;52.554;7.966;2023-03-23T01:06:07;14.40;;;11.73;;
15946;SDS011;8072;52.554;7.966;2023-03-23T01:08:37;14.70;;;11.63;;
15946;SDS011;8072;52.554;7.966;2023-03-23T01:11:10;16.77;;;11.93;;
15946;SDS011;8072;52.554;7.966;2023-03-23T01:13:42;16.50;;;12.00;;
15946;SDS011;8072;52.554;7.966;2023-03-23T01:16:09;17.53;;;12.30;;
15946;SDS011;8072;52.554;7.966;2023-03-23T01:18:35;13.80;;;11.33;;
15946;SDS011;8072;52.554;7.966;2023-03-23T01:21:09;16.90;;;13.03;;
15946;SDS011;8072;52.554;7.966;2023-03-23T01:23:36;18.67;;;11.40;;
15946;SDS011;8072;52.554;7.966;2023-03-23T01:26:03;16.83;;;11.77;;
15946;SDS011;8072;52.554;7.966;2023-03-23T01:28:30;15.63;;;10.77;;
15946;SDS011;8072;52.554;7.966;2023-03-23T01:31:00;20.80;;;11.07;;
15946;SDS011;8072;52.554;7.966;2023-03-23T01:33:31;18.63;;;10.80;;
15946;SDS011;8072;52.554;7.966;2023-03-23T01:35:57;17.53;;;10.83;;
15946;SDS011;8072;52.554;7.966;2023-03-23T01:38:27;16.63;;;11.27;;
15946;SDS011;8072;52.554;7.966;2023-03-23T01:40:52;17.67;;;11.10;;
15946;SDS011;8072;52.554;7.966;2023-03-23T01:43:18;15.43;;;11.27;;
15946;SDS011;8072;52.554;7.966;2023-03-23T01:45:44;14.93;;;10.80;;
15946;SDS011;8072;52.554;7.966;2023-03-23T01:48:13;15.70;;;9.90;;
15946;SDS011;8072;52.554;7.966;2023-03-23T01:51:13;17.57;;;11.43;;
15946;SDS011;8072;52.554;7.966;2023-03-23T01:53:48;15.33;;;9.70;;
15946;SDS011;8072;52.554;7.966;2023-03-23T01:56:27;12.30;;;10.23;;
15946;SDS011;8072;52.554;7.966;2023-03-23T01:58:58;17.83;;;10.20;;
15946;SDS011;8072;52.554;7.966;2023-03-23T02:01:24;15.53;;;10.47;;
15946;SDS011;8072;52.554;7.966;2023-03-23T02:03:51;14.63;;;11.37;;
15946;SDS011;8072;52.554;7.966;2023-03-23T02:06:19;14.83;;;11.50;;
15946;SDS011;8072;52.554;7.966;2023-03-23T02:08:45;17.23;;;11.00;;
15946;SDS011;8072;52.554;7.966;2023-03-23T02:11:15;14.93;;;10.53;;
15946;SDS011;8072;52.554;7.966;2023-03-23T02:13:43;16.53;;;10.90;;
15946;SDS011;8072;52.554;7.966;2023-03-23T02:26:37;14.07;;;9.80;;
15946;SDS011;8072;52.554;7.966;2023-03-23T02:35:23;16.40;;;10.63;;
15946;SDS011;8072;52.554;7.966;2023-03-23T02:38:04;15.40;;;9.73;;
15946;SDS011;8072;52.554;7.966;2023-03-23T02:40:40;14.07;;;10.23;;
15946;SDS011;8072;52.554;7.966;2023-03-23T02:43:15;13.80;;;10.40;;
15946;SDS011;8072;52.554;7.966;2023-03-23T02:45:45;14.37;;;9.43;;
15946;SDS011;8072;52.554;7.966;2023-03-23T02:48:12;12.83;;;9.17;;
15946;SDS011;8072;52.554;7.966;2023-03-23T02:50:42;16.07;;;10.03;;
15946;SDS011;8072;52.554;7.966;2023-03-23T02:53:11;13.00;;;9.40;;
15946;SDS011;8072;52.554;7.966;2023-03-23T02:55:41;12.20;;;8.60;;
15946;SDS011;8072;52.554;7.966;2023-03-23T02:58:09;14.53;;;8.33;;
15946;SDS011;8072;52.554;7.966;2023-03-23T03:00:37;13.33;;;8.23;;
15946;SDS011;8072;52.554;7.966;2023-03-23T03:03:04;11.47;;;8.37;;
15946;SDS011;8072;52.554;7.966;2023-03-23T03:11:31;9.10;;;6.70;;
15946;SDS011;8072;52.554;7.966;2023-03-23T03:13:59;10.50;;;6.90;;
15946;SDS011;8072;52.554;7.966;2023-03-23T03:19:10;11.10;;;5.97;;
15946;SDS011;8072;52.554;7.966;2023-03-23T03:21:38;10.30;;;6.37;;
15946;SDS011;8072;52.554;7.966;2023-03-23T03:24:08;9.00;;;6.33;;
15946;SDS011;8072;52.554;7.966;2023-03-23T03:26:37;13.03;;;7.07;;
15946;SDS011;8072;52.554;7.966;2023-03-23T03:29:04;8.97;;;5.63;;
15946;SDS011;8072;52.554;7.966;2023-03-23T03:31:36;12.77;;;6.57;;
15946;SDS011;8072;52.554;7.966;2023-03-23T03:34:05;9.70;;;6.10;;
15946;SDS011;8072;52.554;7.966;2023-03-23T03:36:32;13.13;;;6.00;;
15946;SDS011;8072;52.554;7.966;2023-03-23T03:39:07;10.57;;;5.83;;
15946;SDS011;8072;52.554;7.966;2023-03-23T03:41:35;7.90;;;5.20;;
15946;SDS011;8072;52.554;7.966;2023-03-23T03:44:02;8.27;;;5.90;;
15946;SDS011;8072;52.554;7.966;2023-03-23T03:46:29;9.37;;;5.80;;
15946;SDS011;8072;52.554;7.966;2023-03-23T03:48:56;8.30;;;5.60;;
15946;SDS011;8072;52.554;7.966;2023-03-23T03:51:26;9.10;;;5.40;;
15946;SDS011;8072;52.554;7.966;2023-03-23T03:53:53;10.20;;;5.40;;
15946;SDS011;8072;52.554;7.966;2023-03-23T03:56:19;5.90;;;4.80;;
15946;SDS011;8072;52.554;7.966;2023-03-23T03:58:47;7.17;;;5.10;;
15946;SDS011;8072;52.554;7.966;2023-03-23T04:01:13;6.33;;;4.70;;
15946;SDS011;8072;52.554;7.966;2023-03-23T04:03:41;11.23;;;5.03;;
15946;SDS011;8072;52.554;7.966;2023-03-23T04:06:08;7.73;;;5.53;;
15946;SDS011;8072;52.554;7.966;2023-03-23T04:08:35;8.03;;;5.23;;
15946;SDS011;8072;52.554;7.966;2023-03-23T04:11:09;6.33;;;4.73;;
15946;SDS011;8072;52.554;7.966;2023-03-23T04:13:37;6.70;;;4.83;;
15946;SDS011;8072;52.554;7.966;2023-03-23T04:16:03;7.17;;;5.30;;
15946;SDS011;8072;52.554;7.966;2023-03-23T04:18:30;7.90;;;4.63;;
15946;SDS011;8072;52.554;7.966;2023-03-23T04:20:57;7.17;;;4.67;;
15946;SDS011;8072;52.554;7.966;2023-03-23T04:23:24;9.77;;;4.70;;
15946;SDS011;8072;52.554;7.966;2023-03-23T04:25:52;8.37;;;4.90;;
15946;SDS011;8072;52.554;7.966;2023-03-23T04:28:22;7.37;;;4.53;;
15946;SDS011;8072;52.554;7.966;2023-03-23T04:30:49;7.50;;;4.90;;
15946;SDS011;8072;52.554;7.966;2023-03-23T04:33:21;7.30;;;5.10;;
15946;SDS011;8072;52.554;7.966;2023-03-23T04:35:50;6.50;;;4.53;;
15946;SDS011;8072;52.554;7.966;2023-03-23T04:38:18;7.37;;;5.10;;
15946;SDS011;8072;52.554;7.966;2023-03-23T04:40:45;7.10;;;4.53;;
15946;SDS011;8072;52.554;7.966;2023-03-23T04:43:16;9.50;;;4.80;;
15946;SDS011;8072;52.554;7.966;2023-03-23T04:45:53;6.60;;;4.23;;
15946;SDS011;8072;52.554;7.966;2023-03-23T04:48:23;7.03;;;4.93;;
15946;SDS011;8072;52.554;7.966;2023-03-23T04:50:53;6.17;;;4.40;;
15946;SDS011;8072;52.554;7.966;2023-03-23T04:53:19;6.90;;;5.20;;
15946;SDS011;8072;52.554;7.966;2023-03-23T04:55:46;9.37;;;5.40;;
15946;SDS011;8072;52.554;7.966;2023-03-23T04:58:14;6.57;;;4.93;;
15946;SDS011;8072;52.554;7.966;2023-03-23T05:00:41;6.07;;;4.83;;
15946;SDS011;8072;52.554;7.966;2023-03-23T05:03:09;9.10;;;4.73;;
15946;SDS011;8072;52.554;7.966;2023-03-23T05:05:35;6.73;;;4.43;;
15946;SDS011;8072;52.554;7.966;2023-03-23T05:08:01;7.77;;;4.90;;
15946;SDS011;8072;52.554;7.966;2023-03-23T05:10:27;7.20;;;4.50;;
15946;SDS011;8072;52.554;7.966;2023-03-23T05:12:53;6.80;;;4.67;;
15946;SDS011;8072;52.554;7.966;2023-03-23T05:15:19;8.97;;;4.87;;
15946;SDS011;8072;52.554;7.966;2023-03-23T05:17:46;5.63;;;4.57;;
15946;SDS011;8072;52.554;7.966;2023-03-23T05:20:14;6.57;;;4.87;;
15946;SDS011;8072;52.554;7.966;2023-03-23T05:22:45;7.17;;;5.20;;
15946;SDS011;8072;52.554;7.966;2023-03-23T05:25:13;7.53;;;4.67;;
15946;SDS011;8072;52.554;7.966;2023-03-23T05:27:39;6.77;;;5.07;;
15946;SDS011;8072;52.554;7.966;2023-03-23T05:30:08;5.67;;;5.00;;
15946;SDS011;8072;52.554;7.966;2023-03-23T05:32:35;7.00;;;4.93;;
15946;SDS011;8072;52.554;7.966;2023-03-23T05:35:02;8.90;;;5.90;;
15946;SDS011;8072;52.554;7.966;2023-03-23T05:37:29;7.67;;;5.43;;
15946;SDS011;8072;52.554;7.966;2023-03-23T05:39:57;6.87;;;5.63;;
15946;SDS011;8072;52.554;7.966;2023-03-23T05:42:31;8.73;;;5.63;;
15946;SDS011;8072;52.554;7.966;2023-03-23T05:44:59;9.00;;;5.67;;
15946;SDS011;8072;52.554;7.966;2023-03-23T05:47:25;8.47;;;6.50;;
15946;SDS011;8072;52.554;7.966;2023-03-23T05:49:52;9.43;;;6.57;;
15946;SDS011;8072;52.554;7.966;2023-03-23T05:52:18;8.77;;;7.17;;
15946;SDS011;8072;52.554;7.966;2023-03-23T05:54:44;9.13;;;6.27;;
15946;SDS011;8072;52.554;7.966;2023-03-23T05:57:10;10.03;;;7.13;;
15946;SDS011;8072;52.554;7.966;2023-03-23T05:59:36;9.20;;;7.27;;
15946;SDS011;8072;52.554;7.966;2023-03-23T06:02:02;8.50;;;7.27;;
15946;SDS011;8072;52.554;7.966;2023-03-23T06:04:29;9.43;;;6.90;;
15946;SDS011;8072;52.554;7.966;2023-03-23T06:06:54;10.30;;;7.07;;
15946;SDS011;8072;52.554;7.966;2023-03-23T06:09:21;8.90;;;7.13;;
15946;SDS011;8072;52.554;7.966;2023-03-23T06:11:48;10.50;;;6.60;;
15946;SDS011;8072;52.554;7.966;2023-03-23T06:14:14;11.43;;;6.50;;
15946;SDS011;8072;52.554;7.966;2023-03-23T06:16:41;8.07;;;6.20;;
15946;SDS011;8072;52.554;7.966;2023-03-23T06:19:07;6.93;;;5.33;;
15946;SDS011;8072;52.554;7.966;2023-03-23T06:21:33;9.90;;;5.40;;
15946;SDS011;8072;52.554;7.966;2023-03-23T06:23:59;8.07;;;4.47;;
15946;SDS011;8072;52.554;7.966;2023-03-23T06:26:28;11.30;;;5.30;;
15946;SDS011;8072;52.554;7.966;2023-03-23T06:28:58;7.10;;;4.80;;
15946;SDS011;8072;52.554;7.966;2023-03-23T06:31:24;10.70;;;4.87;;
15946;SDS011;8072;52.554;7.966;2023-03-23T06:33:52;5.73;;;4.80;;
15946;SDS011;8072;52.554;7.966;2023-03-23T06:36:19;6.80;;;4.23;;
15946;SDS011;8072;52.554;7.966;2023-03-23T06:38:45;7.47;;;3.90;;
15946;SDS011;8072;52.554;7.966;2023-03-23T06:41:11;6.53;;;3.93;;
15946;SDS011;8072;52.554;7.966;2023-03-23T06:43:37;8.57;;;4.07;;
15946;SDS011;8072;52.554;7.966;2023-03-23T06:46:05;6.00;;;3.90;;
15946;SDS011;8072;52.554;7.966;2023-03-23T06:48:31;7.97;;;3.70;;
15946;SDS011;8072;52.554;7.966;2023-03-23T06:50:57;6.07;;;3.70;;
15946;SDS011;8072;52.554;7.966;2023-03-23T06:53:23;11.10;;;3.47;;
15946;SDS011;8072;52.554;7.966;2023-03-23T06:55:49;5.67;;;3.70;;
15946;SDS011;8072;52.554;7.966;2023-03-23T06:58:15;8.37;;;3.80;;
15946;SDS011;8072;52.554;7.966;2023-03-23T07:00:42;6.00;;;3.33;;
15946;SDS011;8072;52.554;7.966;2023-03-23T07:03:09;8.60;;;2.93;;
15946;SDS011;8072;52.554;7.966;2023-03-23T07:05:35;7.20;;;3.30;;
15946;SDS011;8072;52.554;7.966;2023-03-23T07:08:02;4.57;;;3.13;;
15946;SDS011;8072;52.554;7.966;2023-03-23T07:10:29;4.23;;;2.87;;
15946;SDS011;8072;52.554;7.966;2023-03-23T07:12:55;7.67;;;3.20;;
15946;SDS011;8072;52.554;7.966;2023-03-23T07:15:21;7.57;;;3.60;;
15946;SDS011;8072;52.554;7.966;2023-03-23T07:17:46;6.97;;;3.37;;
15946;SDS011;8072;52.554;7.966;2023-03-23T07:20:12;7.47;;;3.10;;
15946;SDS011;8072;52.554;7.966;2023-03-23T07:22:39;5.83;;;2.97;;
15946;SDS011;8072;52.554;7.966;2023-03-23T07:25:05;8.00;;;3.23;;
15946;SDS011;8072;52.554;7.966;2023-03-23T07:27:31;5.07;;;2.93;;
15946;SDS011;8072;52.554;7.966;2023-03-23T07:29:57;7.43;;;3.30;;
15946;SDS011;8072;52.554;7.966;2023-03-23T07:32:23;4.90;;;3.33;;
15946;SDS011;8072;52.554;7.966;2023-03-23T07:34:49;11.80;;;3.30;;
15946;SDS011;8072;52.554;7.966;2023-03-23T07:37:15;7.63;;;3.03;;
15946;SDS011;8072;52.554;7.966;2023-03-23T07:39:42;7.83;;;2.70;;
15946;SDS011;8072;52.554;7.966;2023-03-23T07:42:08;6.07;;;2.60;;
15946;SDS011;8072;52.554;7.966;2023-03-23T07:44:34;5.67;;;2.63;;
15946;SDS011;8072;52.554;7.966;2023-03-23T07:47:00;5.90;;;2.53;;
15946;SDS011;8072;52.554;7.966;2023-03-23T07:49:27;6.17;;;2.70;;
15946;SDS011;8072;52.554;7.966;2023-03-23T07:51:55;7.80;;;2.80;;
15946;SDS011;8072;52.554;7.966;2023-03-23T07:54:22;5.87;;;2.73;;
15946;SDS011;8072;52.554;7.966;2023-03-23T07:56:48;7.37;;;3.20;;
15946;SDS011;8072;52.554;7.966;2023-03-23T07:59:14;5.43;;;2.80;;
15946;SDS011;8072;52.554;7.966;2023-03-23T08:01:40;7.03;;;2.83;;
15946;SDS011;8072;52.554;7.966;2023-03-23T08:04:06;7.07;;;2.23;;
15946;SDS011;8072;52.554;7.966;2023-03-23T08:06:34;6.90;;;2.00;;
15946;SDS011;8072;52.554;7.966;2023-03-23T08:09:00;3.73;;;1.57;;
15946;SDS011;8072;52.554;7.966;2023-03-23T08:11:31;4.93;;;1.33;;
15946;SDS011;8072;52.554;7.966;2023-03-23T08:13:57;7.10;;;1.70;;
15946;SDS011;8072;52.554;7.966;2023-03-23T08:16:23;2.47;;;1.37;;
15946;SDS011;8072;52.554;7.966;2023-03-23T08:18:51;5.77;;;1.53;;
15946;SDS011;8072;52.554;7.966;2023-03-23T08:21:17;6.27;;;1.53;;
15946;SDS011;8072;52.554;7.966;2023-03-23T08:23:43;2.63;;;1.63;;
15946;SDS011;8072;52.554;7.966;2023-03-23T08:26:09;5.33;;;1.20;;
15946;SDS011;8072;52.554;7.966;2023-03-23T08:28:35;5.23;;;1.50;;
15946;SDS011;8072;52.554;7.966;2023-03-23T08:31:08;4.77;;;1.53;;
15946;SDS011;8072;52.554;7.966;2023-03-23T08:33:36;7.60;;;1.50;;
15946;SDS011;8072;52.554;7.966;2023-03-23T08:36:03;4.30;;;1.47;;
15946;SDS011;8072;52.554;7.966;2023-03-23T08:38:29;4.77;;;1.57;;
15946;SDS011;8072;52.554;7.966;2023-03-23T08:40:59;5.30;;;1.70;;
15946;SDS011;8072;52.554;7.966;2023-03-23T08:43:26;2.23;;;1.30;;
15946;SDS011;8072;52.554;7.966;2023-03-23T08:45:52;4.07;;;1.50;;
15946;SDS011;8072;52.554;7.966;2023-03-23T08:48:19;6.33;;;1.57;;
15946;SDS011;8072;52.554;7.966;2023-03-23T08:50:45;3.33;;;1.20;;
15946;SDS011;8072;52.554;7.966;2023-03-23T08:53:11;2.77;;;1.37;;
15946;SDS011;8072;52.554;7.966;2023-03-23T08:55:37;2.70;;;1.07;;
15946;SDS011;8072;52.554;7.966;2023-03-23T08:58:03;7.03;;;1.53;;
15946;SDS011;8072;52.554;7.966;2023-03-23T09:00:29;4.97;;;1.37;;
15946;SDS011;8072;52.554;7.966;2023-03-23T09:02:56;3.70;;;1.23;;
15946;SDS011;8072;52.554;7.966;2023-03-23T09:05:23;4.77;;;1.40;;
15946;SDS011;8072;52.554;7.966;2023-03-23T09:07:51;2.13;;;1.10;;
15946;SDS011;8072;52.554;7.966;2023-03-23T09:10:19;4.77;;;1.20;;
15946;SDS011;8072;52.554;7.966;2023-03-23T09:12:45;1.73;;;1.07;;
15946;SDS011;8072;52.554;7.966;2023-03-23T09:15:12;4.93;;;1.60;;
15946;SDS011;8072;52.554;7.966;2023-03-23T09:17:42;4.10;;;1.20;;
15946;SDS011;8072;52.554;7.966;2023-03-23T09:20:14;4.50;;;1.23;;
15946;SDS011;8072;52.554;7.966;2023-03-23T09:22:42;3.40;;;1.10;;
15946;SDS011;8072;52.554;7.966;2023-03-23T09:25:10;3.80;;;1.30;;
15946;SDS011;8072;52.554;7.966;2023-03-23T09:27:38;5.13;;;1.40;;
15946;SDS011;8072;52.554;7.966;2023-03-23T09:30:06;3.10;;;1.30;;
15946;SDS011;8072;52.554;7.966;2023-03-23T09:32:35;4.20;;;1.40;;
15946;SDS011;8072;52.554;7.966;2023-03-23T09:35:03;3.23;;;1.40;;
15946;SDS011;8072;52.554;7.966;2023-03-23T09:37:31;2.90;;;1.53;;
15946;SDS011;8072;52.554;7.966;2023-03-23T09:39:58;4.70;;;1.87;;
15946;SDS011;8072;52.554;7.966;2023-03-23T09:45:05;5.33;;;1.80;;
15946;SDS011;8072;52.554;7.966;2023-03-23T09:50:50;4.27;;;2.07;;
15946;SDS011;8072;52.554;7.966;2023-03-23T09:53:23;5.27;;;1.90;;
15946;SDS011;8072;52.554;7.966;2023-03-23T09:55:53;6.93;;;1.70;;
15946;SDS011;8072;52.554;7.966;2023-03-23T09:58:27;5.83;;;2.23;;
15946;SDS011;8072;52.554;7.966;2023-03-23T10:02:04;6.27;;;2.00;;
15946;SDS011;8072;52.554;7.966;2023-03-23T10:04:05;4.70;;;1.97;;
15946;SDS011;8072;52.554;7.966;2023-03-23T10:06:38;7.83;;;2.33;;
15946;SDS011;8072;52.554;7.966;2023-03-23T10:09:04;3.90;;;2.23;;
15946;SDS011;8072;52.554;7.966;2023-03-23T10:14:03;6.23;;;2.30;;
15946;SDS011;8072;52.554;7.966;2023-03-23T10:16:51;7.57;;;2.37;;
15946;SDS011;8072;52.554;7.966;2023-03-23T10:22:09;5.73;;;2.30;;
15946;SDS011;8072;52.554;7.966;2023-03-23T10:24:38;5.53;;;2.77;;
15946;SDS011;8072;52.554;7.966;2023-03-23T10:29:59;4.67;;;1.90;;
15946;SDS011;8072;52.554;7.966;2023-03-23T10:35:18;4.67;;;1.60;;
15946;SDS011;8072;52.554;7.966;2023-03-23T10:37:48;4.17;;;1.70;;
15946;SDS011;8072;52.554;7.966;2023-03-23T10:40:23;2.03;;;1.33;;
15946;SDS011;8072;52.554;7.966;2023-03-23T10:42:52;3.30;;;1.27;;
15946;SDS011;8072;52.554;7.966;2023-03-23T10:45:27;3.83;;;1.90;;
15946;SDS011;8072;52.554;7.966;2023-03-23T10:51:03;2.70;;;1.50;;
15946;SDS011;8072;52.554;7.966;2023-03-23T10:55:57;4.67;;;1.80;;
15946;SDS011;8072;52.554;7.966;2023-03-23T10:58:28;5.90;;;1.67;;
15946;SDS011;8072;52.554;7.966;2023-03-23T11:01:00;5.43;;;1.83;;
15946;SDS011;8072;52.554;7.966;2023-03-23T11:06:09;1.83;;;1.40;;
15946;SDS011;8072;52.554;7.966;2023-03-23T11:08:49;4.00;;;1.57;;
15946;SDS011;8072;52.554;7.966;2023-03-23T11:11:36;7.40;;;1.53;;
15946;SDS011;8072;52.554;7.966;2023-03-23T11:19:21;2.43;;;1.60;;
15946;SDS011;8072;52.554;7.966;2023-03-23T11:21:54;2.80;;;1.70;;
15946;SDS011;8072;52.554;7.966;2023-03-23T11:24:34;8.00;;;1.80;;
15946;SDS011;8072;52.554;7.966;2023-03-23T11:27:09;4.20;;;2.23;;
15946;SDS011;8072;52.554;7.966;2023-03-23T11:29:41;5.43;;;2.10;;
15946;SDS011;8072;52.554;7.966;2023-03-23T11:32:15;4.17;;;2.10;;
15946;SDS011;8072;52.554;7.966;2023-03-23T11:34:45;4.57;;;1.90;;
15946;SDS011;8072;52.554;7.966;2023-03-23T11:37:32;3.90;;;1.90;;
15946;SDS011;8072;52.554;7.966;2023-03-23T11:40:02;6.17;;;2.17;;
15946;SDS011;8072;52.554;7.966;2023-03-23T11:43:18;5.90;;;2.13;;
15946;SDS011;8072;52.554;7.966;2023-03-23T11:45:33;3.17;;;2.30;;
15946;SDS011;8072;52.554;7.966;2023-03-23T11:50:52;4.97;;;1.80;;
15946;SDS011;8072;52.554;7.966;2023-03-23T11:56:30;3.10;;;1.73;;
15946;SDS011;8072;52.554;7.966;2023-03-23T11:59:01;4.60;;;2.77;;
15946;SDS011;8072;52.554;7.966;2023-03-23T12:20:42;5.23;;;1.77;;
15946;SDS011;8072;52.554;7.966;2023-03-23T12:23:24;3.50;;;1.40;;
15946;SDS011;8072;52.554;7.966;2023-03-23T12:37:08;5.53;;;1.77;;
15946;SDS011;8072;52.554;7.966;2023-03-23T12:48:21;4.30;;;1.27;;
15946;SDS011;8072;52.554;7.966;2023-03-23T12:53:29;7.40;;;1.80;;
15946;SDS011;8072;52.554;7.966;2023-03-23T12:56:09;4.47;;;1.60;;
15946;SDS011;8072;52.554;7.966;2023-03-23T12:58:38;4.50;;;1.50;;
15946;SDS011;8072;52.554;7.966;2023-03-23T13:03:55;6.60;;;1.70;;
15946;SDS011;8072;52.554;7.966;2023-03-23T13:06:55;3.27;;;1.30;;
15946;SDS011;8072;52.554;7.966;2023-03-23T13:12:08;6.20;;;1.57;;
15946;SDS011;8072;52.554;7.966;2023-03-23T13:17:22;6.00;;;2.77;;
15946;SDS011;8072;52.554;7.966;2023-03-23T13:25:27;4.53;;;1.30;;
15946;SDS011;8072;52.554;7.966;2023-03-23T13:28:05;4.93;;;1.57;;
15946;SDS011;8072;52.554;7.966;2023-03-23T13:30:30;6.83;;;1.40;;
15946;SDS011;8072;52.554;7.966;2023-03-23T13:33:04;6.47;;;1.63;;
15946;SDS011;8072;52.554;7.966;2023-03-23T13:35:34;6.17;;;1.50;;
15946;SDS011;8072;52.554;7.966;2023-03-23T13:38:12;4.53;;;1.47;;
15946;SDS011;8072;52.554;7.966;2023-03-23T13:40:44;7.37;;;1.43;;
15946;SDS011;8072;52.554;7.966;2023-03-23T13:43:11;8.27;;;2.33;;
15946;SDS011;8072;52.554;7.966;2023-03-23T13:45:47;5.30;;;1.80;;
15946;SDS011;8072;52.554;7.966;2023-03-23T13:53:43;4.37;;;1.40;;
15946;SDS011;8072;52.554;7.966;2023-03-23T13:56:20;3.87;;;1.40;;
15946;SDS011;8072;52.554;7.966;2023-03-23T13:59:07;4.77;;;1.57;;
15946;SDS011;8072;52.554;7.966;2023-03-23T14:01:43;4.47;;;1.60;;
15946;SDS011;8072;52.554;7.966;2023-03-23T14:04:14;6.87;;;1.50;;
15946;SDS011;8072;52.554;7.966;2023-03-23T14:06:43;2.37;;;1.20;;
15946;SDS011;8072;52.554;7.966;2023-03-23T14:09:16;3.13;;;1.40;;
15946;SDS011;8072;52.554;7.966;2023-03-23T14:11:51;4.77;;;1.10;;
15946;SDS011;8072;52.554;7.966;2023-03-23T14:14:47;3.50;;;1.20;;
15946;SDS011;8072;52.554;7.966;2023-03-23T14:17:24;6.83;;;1.50;;
15946;SDS011;8072;52.554;7.966;2023-03-23T14:19:52;3.97;;;1.57;;
15946;SDS011;8072;52.554;7.966;2023-03-23T14:22:27;3.37;;;1.50;;
15946;SDS011;8072;52.554;7.966;2023-03-23T14:25:01;3.73;;;1.30;;
15946;SDS011;8072;52.554;7.966;2023-03-23T14:27:35;5.50;;;1.47;;
15946;SDS011;8072;52.554;7.966;2023-03-23T14:30:02;5.57;;;1.57;;
15946;SDS011;8072;52.554;7.966;2023-03-23T14:32:31;4.60;;;1.50;;
15946;SDS011;8072;52.554;7.966;2023-03-23T14:34:58;3.67;;;1.30;;
15946;SDS011;8072;52.554;7.966;2023-03-23T14:37:30;5.10;;;1.83;;
15946;SDS011;8072;52.554;7.966;2023-03-23T14:39:57;4.23;;;1.70;;
15946;SDS011;8072;52.554;7.966;2023-03-23T14:42:28;3.23;;;1.40;;
15946;SDS011;8072;52.554;7.966;2023-03-23T14:44:55;7.27;;;2.43;;
15946;SDS011;8072;52.554;7.966;2023-03-23T14:47:25;5.60;;;1.63;;
15946;SDS011;8072;52.554;7.966;2023-03-23T14:49:57;3.50;;;1.60;;
15946;SDS011;8072;52.554;7.966;2023-03-23T14:52:25;4.00;;;1.50;;
15946;SDS011;8072;52.554;7.966;2023-03-23T14:55:20;5.57;;;1.70;;
15946;SDS011;8072;52.554;7.966;2023-03-23T14:57:48;5.53;;;1.60;;
15946;SDS011;8072;52.554;7.966;2023-03-23T15:00:20;4.43;;;1.57;;
15946;SDS011;8072;52.554;7.966;2023-03-23T15:02:57;6.87;;;1.50;;
15946;SDS011;8072;52.554;7.966;2023-03-23T15:05:29;6.07;;;1.83;;
15946;SDS011;8072;52.554;7.966;2023-03-23T15:08:00;4.00;;;1.60;;
15946;SDS011;8072;52.554;7.966;2023-03-23T15:10:54;8.53;;;1.87;;
15946;SDS011;8072;52.554;7.966;2023-03-23T15:13:25;5.33;;;1.50;;
15946;SDS011;8072;52.554;7.966;2023-03-23T15:15:51;3.33;;;1.57;;
15946;SDS011;8072;52.554;7.966;2023-03-23T15:18:29;5.47;;;1.83;;
15946;SDS011;8072;52.554;7.966;2023-03-23T15:21:07;3.93;;;1.60;;
15946;SDS011;8072;52.554;7.966;2023-03-23T15:23:35;5.00;;;1.67;;
15946;SDS011;8072;52.554;7.966;2023-03-23T15:26:23;4.47;;;1.77;;
15946;SDS011;8072;52.554;7.966;2023-03-23T15:28:49;3.93;;;1.87;;
15946;SDS011;8072;52.554;7.966;2023-03-23T15:31:15;4.50;;;1.53;;
15946;SDS011;8072;52.554;7.966;2023-03-23T15:33:41;6.47;;;1.50;;
15946;SDS011;8072;52.554;7.966;2023-03-23T15:36:08;5.83;;;1.37;;
15946;SDS011;8072;52.554;7.966;2023-03-23T15:38:42;3.07;;;1.57;;
15946;SDS011;8072;52.554;7.966;2023-03-23T15:41:23;6.00;;;1.80;;
15946;SDS011;8072;52.554;7.966;2023-03-23T15:43:54;2.10;;;1.73;;
15946;SDS011;8072;52.554;7.966;2023-03-23T15:46:27;5.03;;;1.33;;
15946;SDS011;8072;52.554;7.966;2023-03-23T15:49:04;5.17;;;1.60;;
15946;SDS011;8072;52.554;7.966;2023-03-23T15:51:34;5.80;;;1.80;;
15946;SDS011;8072;52.554;7.966;2023-03-23T15:54:00;3.87;;;1.30;;
15946;SDS011;8072;52.554;7.966;2023-03-23T15:56:26;3.13;;;1.20;;
15946;SDS011;8072;52.554;7.966;2023-03-23T15:58:54;3.73;;;1.40;;
15946;SDS011;8072;52.554;7.966;2023-03-23T16:01:24;4.73;;;1.50;;
15946;SDS011;8072;52.554;7.966;2023-03-23T16:06:18;4.60;;;1.40;;
15946;SDS011;8072;52.554;7.966;2023-03-23T16:08:45;2.73;;;1.17;;
15946;SDS011;8072;52.554;7.966;2023-03-23T16:11:12;4.33;;;1.23;;
15946;SDS011;8072;52.554;7.966;2023-03-23T16:13:38;3.83;;;1.57;;
15946;SDS011;8072;52.554;7.966;2023-03-23T16:16:05;3.10;;;1.40;;
15946;SDS011;8072;52.554;7.966;2023-03-23T16:18:36;3.63;;;1.40;;
15946;SDS011;8072;52.554;7.966;2023-03-23T16:21:01;2.97;;;1.37;;
15946;SDS011;8072;52.554;7.966;2023-03-23T16:23:27;4.17;;;1.60;;
15946;SDS011;8072;52.554;7.966;2023-03-23T16:25:53;3.37;;;1.70;;
15946;SDS011;8072;52.554;7.966;2023-03-23T16:28:19;3.27;;;1.50;;
15946;SDS011;8072;52.554;7.966;2023-03-23T16:30:45;5.70;;;1.60;;
15946;SDS011;8072;52.554;7.966;2023-03-23T16:33:12;6.00;;;2.47;;
15946;SDS011;8072;52.554;7.966;2023-03-23T16:35:38;1.83;;;1.47;;
15946;SDS011;8072;52.554;7.966;2023-03-23T16:38:03;2.80;;;1.30;;
15946;SDS011;8072;52.554;7.966;2023-03-23T16:40:29;6.27;;;2.10;;
15946;SDS011;8072;52.554;7.966;2023-03-23T16:42:56;6.13;;;1.50;;
15946;SDS011;8072;52.554;7.966;2023-03-23T16:45:21;3.10;;;1.50;;
15946;SDS011;8072;52.554;7.966;2023-03-23T16:47:48;4.57;;;1.60;;
15946;SDS011;8072;52.554;7.966;2023-03-23T16:50:15;5.50;;;1.60;;
15946;SDS011;8072;52.554;7.966;2023-03-23T16:52:43;3.33;;;1.60;;
15946;SDS011;8072;52.554;7.966;2023-03-23T16:55:11;4.93;;;1.87;;
15946;SDS011;8072;52.554;7.966;2023-03-23T16:57:37;2.20;;;1.60;;
15946;SDS011;8072;52.554;7.966;2023-03-23T17:00:05;3.63;;;1.60;;
15946;SDS011;8072;52.554;7.966;2023-03-23T17:02:33;4.07;;;1.60;;
15946;SDS011;8072;52.554;7.966;2023-03-23T17:04:59;5.17;;;1.80;;
15946;SDS011;8072;52.554;7.966;2023-03-23T17:07:26;3.60;;;1.77;;
15946;SDS011;8072;52.554;7.966;2023-03-23T17:09:52;4.03;;;1.77;;
15946;SDS011;8072;52.554;7.966;2023-03-23T17:12:18;2.87;;;1.50;;
15946;SDS011;8072;52.554;7.966;2023-03-23T17:14:44;7.33;;;1.80;;
15946;SDS011;8072;52.554;7.966;2023-03-23T17:17:10;3.43;;;1.50;;